createdAt,value
2019-03-20T00:03:51.127Z,2.22
2019-03-20T00:13:56.200Z,2.12
2019-03-20T00:24:01.511Z,2.40
2019-03-20T00:34:07.016Z,3.40
2019-03-20T00:44:12.415Z,2.35
2019-03-20T00:54:17.796Z,2.85
2019-03-20T01:04:23.016Z,2.37
2019-03-20T01:14:28.386Z,2.87
2019-03-20T01:24:33.446Z,2.58
2019-03-20T01:34:38.504Z,2.52
2019-03-20T01:44:43.940Z,2.70
2019-03-20T01:54:49.010Z,2.45
2019-03-20T02:04:54.067Z,2.37
2019-03-20T02:14:59.230Z,3.25
2019-03-20T02:25:04.758Z,2.65
2019-03-20T02:35:10.270Z,2.55
2019-03-20T02:45:15.625Z,2.60
2019-03-20T02:55:20.933Z,3.05
2019-03-20T03:05:25.977Z,2.20
2019-03-20T03:15:31.042Z,2.40
2019-03-20T03:25:36.210Z,2.60
2019-03-20T03:35:41.326Z,1.70
2019-03-20T03:45:46.493Z,2.17
2019-03-20T03:55:51.569Z,2.80
2019-03-20T04:05:57.238Z,2.08
2019-03-20T04:16:02.528Z,2.42
2019-03-20T04:26:07.711Z,2.77
2019-03-20T04:36:12.775Z,2.75
2019-03-20T04:46:18.203Z,2.20
2019-03-20T04:56:23.656Z,2.42
2019-03-20T05:06:28.723Z,2.33
2019-03-20T05:16:34.147Z,2.50
2019-03-20T05:26:39.238Z,2.37
2019-03-20T05:36:44.604Z,2.60
2019-03-20T05:46:50.446Z,2.00
2019-03-20T05:56:55.549Z,3.02
2019-03-20T06:07:00.967Z,3.10
2019-03-20T06:17:06.070Z,3.25
2019-03-20T06:27:11.595Z,3.90
2019-03-20T06:37:16.751Z,2.17
2019-03-20T06:47:22.539Z,2.72
2019-03-20T06:57:31.571Z,2.92
2019-03-20T07:07:44.354Z,2.30
2019-03-20T07:17:49.366Z,2.20
2019-03-20T07:27:54.657Z,6.08
2019-03-20T07:37:59.935Z,2.25
2019-03-20T07:48:04.995Z,2.58
2019-03-20T07:58:10.311Z,2.47
2019-03-20T08:08:15.355Z,2.47
2019-03-20T08:18:20.409Z,2.42
2019-03-20T08:28:25.468Z,2.40
2019-03-20T08:38:30.528Z,3.45
2019-03-20T08:48:35.607Z,3.02
2019-03-20T08:58:40.909Z,4.53
2019-03-20T09:08:45.971Z,3.70
2019-03-20T09:18:51.052Z,3.77
2019-03-20T09:28:56.187Z,4.08
2019-03-20T09:39:01.267Z,3.25
2019-03-20T09:49:06.563Z,2.15
2019-03-20T09:59:11.649Z,1.87
2019-03-20T10:09:16.799Z,2.72
2019-03-20T10:19:22.952Z,2.42
2019-03-20T10:29:29.096Z,3.05
2019-03-20T10:39:34.220Z,3.17
2019-03-20T10:49:39.313Z,3.55
2019-03-20T10:59:44.383Z,3.60
2019-03-20T11:09:49.663Z,3.42
2019-03-20T11:19:56.327Z,4.33
2019-03-20T11:30:01.621Z,4.30
2019-03-20T11:40:10.692Z,4.30
2019-03-20T11:50:18.344Z,3.03
2019-03-20T12:00:23.556Z,3.77
2019-03-20T12:10:28.851Z,4.67
2019-03-20T12:20:34.239Z,4.80
2019-03-20T12:30:39.705Z,6.60
2019-03-20T12:40:44.833Z,5.00
2019-03-20T12:50:50.036Z,4.28
2019-03-20T13:00:55.164Z,4.90
2019-03-20T13:11:00.254Z,4.60
2019-03-20T13:21:05.363Z,6.30
2019-03-20T13:31:13.875Z,6.90
2019-03-20T13:41:19.137Z,7.15
2019-03-20T13:51:24.290Z,6.85
2019-03-20T14:01:29.361Z,7.53
2019-03-20T14:11:34.771Z,7.40
2019-03-20T14:21:39.870Z,8.48
2019-03-20T14:31:45.980Z,8.20
2019-03-20T14:41:53.431Z,9.88
2019-03-20T14:51:58.602Z,8.60
2019-03-20T15:02:03.695Z,10.40
2019-03-20T15:12:08.794Z,10.50
2019-03-20T15:22:17.053Z,11.18
2019-03-20T15:32:22.558Z,10.13
2019-03-20T15:42:27.770Z,11.10
2019-03-20T15:52:32.919Z,10.72
2019-03-20T16:02:38.315Z,11.70
2019-03-20T16:12:43.391Z,10.68
2019-03-20T16:22:49.515Z,11.65
2019-03-20T16:32:56.526Z,10.35
2019-03-20T16:43:01.926Z,10.63
2019-03-20T16:53:07.133Z,9.83
2019-03-20T17:03:12.229Z,9.53
2019-03-20T17:13:17.310Z,9.38
2019-03-20T17:23:22.406Z,11.68
2019-03-20T17:33:28.142Z,10.40
2019-03-20T17:43:33.282Z,12.50
2019-03-20T17:53:38.391Z,13.65
2019-03-20T18:03:43.568Z,14.07
2019-03-20T18:13:48.646Z,13.85
2019-03-20T18:23:54.091Z,15.93
2019-03-20T18:33:59.697Z,15.72
2019-03-20T18:44:04.879Z,16.17
2019-03-20T18:54:10.302Z,15.50
2019-03-20T19:04:15.488Z,17.35
2019-03-20T19:14:20.659Z,16.93
2019-03-20T19:24:25.883Z,16.65
2019-03-20T19:34:31.284Z,16.77
2019-03-20T19:44:36.672Z,17.80
2019-03-20T19:54:42.058Z,28.50
2019-03-20T20:04:47.131Z,38.55
2019-03-20T20:14:52.441Z,23.15
2019-03-20T20:24:57.550Z,21.45
2019-03-20T20:35:02.647Z,19.82
2019-03-20T20:45:08.692Z,14.57
2019-03-20T20:55:14.001Z,17.10
2019-03-20T21:05:19.083Z,16.25
2019-03-20T21:15:41.577Z,16.50
2019-03-20T21:25:47.666Z,15.93
2019-03-20T21:36:29.078Z,16.70
2019-03-20T21:47:25.115Z,16.97
2019-03-20T21:58:10.454Z,15.63
2019-03-20T22:08:16.071Z,17.17
2019-03-20T22:19:10.201Z,17.20
2019-03-20T22:29:25.871Z,16.00
2019-03-20T22:40:09.011Z,15.88
2019-03-20T22:50:57.643Z,16.30
2019-03-20T23:01:03.292Z,16.37
2019-03-20T23:11:09.122Z,15.93
2019-03-20T23:21:14.815Z,16.37
2019-03-20T23:31:20.410Z,16.20
2019-03-20T23:41:26.251Z,15.48
2019-03-20T23:51:31.897Z,10.60
